Impacts TAF Board
For situational awareness. Not to be used for flight planning purposes.
IDs:

KISM - Kissimmee Muni, FL, US

Issued at 2331 UTC 30 Jun 2022
Updated at 2338 UTC 30 Jun 2022
Potential Impact None Slight Moderate High
Time2256Z 01/00Z 01/01Z 01/02Z 01/03Z 01/04Z 01/05Z 01/06Z 01/07Z 01/08Z 01/09Z 01/10Z 01/11Z 01/12Z>>
Type OBS PRVL PRVL PRVL PRVL PRVL PRVL PRVL PRVL PRVL PRVL PRVL PRVL PRVL
VIS 10 >6 >6 >6 >6 >6 >6 >6 >6 >6 >6 >6 >6 >6
CIG -- 50 50 50 50 140 140 140 140 140 140 140 140 140
Cover CLR OVC OVC OVC OVC BKN BKN BKN BKN BKN BKN BKN BKN BKN
FltCat VFR VFR VFR VFR VFR VFR VFR VFR VFR VFR VFR VFR VFR VFR
WX -- VCSH VCSH VCSH VCSH -- -- -- -- -- -- -- -- --
WDir 100 120 120 120 120 160 160 160 160 160 160 160 160 160
WSpd 10 6 6 6 6 4 4 4 4 4 4 4 4 4
WGst -- -- -- -- -- -- -- -- -- -- -- -- -- --
WSHgt -- -- -- -- -- -- -- -- -- -- -- -- -- --
WSDir -- -- -- -- -- -- -- -- -- -- -- -- -- --
WSSpd -- -- -- -- -- -- -- -- -- -- -- -- -- --
Raw TAF
KISM 302331Z 0100/0124 12006KT P6SM VCSH FEW030 BKN050 OVC080
  FM010400 16004KT P6SM SCT080 BKN140
  FM011400 16006KT P6SM SCT035 SCT080 BKN200
  FM011700 17008KT P6SM VCTS SCT035CB SCT060 BKN250


Raw METAR
KISM 302256Z 10010KT 10SM CLR 28/24 A3008 RMK AO2 LTG DSNT S AND SW TSE15 SLP184 T02780239 PNO $
KISM 302221Z 09012KT 10SM FEW060 SCT080 OVC100 28/23 A3009 RMK AO2 LTG DSNT SE AND S TSE15 PNO $
KISM 302156Z 08014G18KT 10SM VCTS BKN065 BKN075 29/22 A3008 RMK AO2 LTG DSNT S TSB53 SLP184 T02890222 PNO $
KISM 302056Z 04009KT 10SM FEW070 29/22 A3009 RMK AO2 WSHFT 2028 LTG DSNT SE TSB36E51 SLP187 6//// T02890222 55007 PNO $
KISM 302042Z 04013G21KT 10SM VCTS BKN060 BKN080 29/23 A3008 RMK AO2 WSHFT 2028 LTG DSNT N AND SE TSB36 PRESRR PNO $

METAR Board
Radar Display
Forecast Discussion
For situational awareness. Not to be used for flight planning purposes.